Time;durP1;ratioP1;P1;durP2;ratioP2;P2;SDS_P1;SDS_P2;PMS_P1;PMS_P2;Temp;Humidity;BMP_temperature;BMP_pressure;BME280_temperature;BME280_humidity;BME280_pressure;Samples;Min_cycle;Max_cycle;Signal;HPM_P1;HPM_P2
2022/11/17 00:01:09;;;;;;;9.57;2.47;;;10.70;99.90;;;;;;4987856;28;20034;-55
2022/11/17 00:03:34;;;;;;;7.00;2.65;;;10.60;99.90;;;;;;4990279;28;21120;-57
2022/11/17 00:06:06;;;;;;;14.45;2.05;;;10.70;99.90;;;;;;4992114;28;20034;-55
2022/11/17 00:08:32;;;;;;;5.32;1.90;;;10.60;99.90;;;;;;4992079;28;20058;-57
2022/11/17 00:10:59;;;;;;;8.77;2.30;;;10.60;99.90;;;;;;4989345;28;20041;-56
2022/11/17 00:16:15;;;;;;;5.65;2.20;;;10.70;99.90;;;;;;4995375;28;20041;-56
2022/11/17 00:21:27;;;;;;;4.72;1.77;;;10.60;99.90;;;;;;4989612;28;20072;-56
2022/11/17 00:23:56;;;;;;;4.88;2.03;;;10.60;99.90;;;;;;4996829;28;20026;-57
2022/11/17 00:26:23;;;;;;;4.47;1.55;;;10.60;99.90;;;;;;4991009;28;20038;-54
2022/11/17 00:28:53;;;;;;;4.93;1.60;;;10.70;99.90;;;;;;4989415;28;20105;-57
2022/11/17 00:34:04;;;;;;;7.28;2.08;;;10.70;99.90;;;;;;4989221;28;20108;-57
2022/11/17 00:36:32;;;;;;;3.60;1.73;;;10.80;99.90;;;;;;4990351;28;20030;-55
2022/11/17 00:38:58;;;;;;;2.67;1.35;;;10.80;99.90;;;;;;4994722;28;20392;-57
2022/11/17 00:41:23;;;;;;;6.43;1.80;;;10.80;99.90;;;;;;4990028;28;20027;-56
2022/11/17 00:43:49;;;;;;;6.30;1.63;;;10.80;99.90;;;;;;4989870;28;20037;-57
2022/11/17 00:46:14;;;;;;;4.00;1.48;;;10.80;99.90;;;;;;4990184;28;20027;-56
2022/11/17 00:48:40;;;;;;;3.35;1.83;;;10.80;99.90;;;;;;4995216;28;20033;-54
2022/11/17 00:51:05;;;;;;;3.38;1.15;;;10.80;99.90;;;;;;4990259;28;20118;-55
2022/11/17 00:53:31;;;;;;;7.97;2.28;;;10.80;99.90;;;;;;4963291;28;20045;-56
2022/11/17 00:55:57;;;;;;;7.22;1.52;;;10.90;99.90;;;;;;4994928;28;20030;-54
2022/11/17 00:58:22;;;;;;;6.85;1.45;;;10.90;99.90;;;;;;4995796;28;20092;-54
2022/11/17 01:00:48;;;;;;;8.48;1.27;;;10.90;99.90;;;;;;4992688;28;20022;-57
2022/11/17 01:03:14;;;;;;;9.65;1.65;;;10.90;99.90;;;;;;4997509;28;20444;-56
2022/11/17 01:05:39;;;;;;;12.02;1.65;;;10.90;99.90;;;;;;4992309;28;20030;-55
2022/11/17 01:08:05;;;;;;;4.47;1.45;;;10.90;99.90;;;;;;4990961;28;20073;-57
2022/11/17 01:10:33;;;;;;;7.78;1.20;;;10.80;99.90;;;;;;4987825;28;20030;-55
2022/11/17 01:12:58;;;;;;;5.32;1.58;;;10.90;99.90;;;;;;4986628;28;20105;-56
2022/11/17 01:15:24;;;;;;;5.82;1.10;;;10.80;99.90;;;;;;4989922;28;20113;-54
2022/11/17 01:17:49;;;;;;;6.32;1.70;;;10.80;99.90;;;;;;4990082;28;20027;-57
2022/11/17 01:20:15;;;;;;;2.00;1.13;;;10.80;99.90;;;;;;4991824;28;20077;-57
2022/11/17 01:22:40;;;;;;;11.65;1.60;;;10.80;99.90;;;;;;4990399;28;20026;-57
2022/11/17 01:25:06;;;;;;;8.05;1.67;;;10.80;99.90;;;;;;4990725;28;20038;-58
2022/11/17 01:27:32;;;;;;;3.70;1.15;;;10.80;99.90;;;;;;4991989;28;20025;-58
2022/11/17 01:29:57;;;;;;;10.70;2.25;;;10.80;99.90;;;;;;4972735;28;20649;-56
2022/11/17 01:32:23;;;;;;;3.03;1.10;;;10.80;99.90;;;;;;4989316;28;20042;-57
2022/11/17 01:34:48;;;;;;;10.23;1.67;;;10.70;99.90;;;;;;4991556;28;20044;-56
2022/11/17 01:37:20;;;;;;;6.03;1.42;;;10.70;99.90;;;;;;4990238;28;20038;-57
2022/11/17 01:39:46;;;;;;;8.15;1.25;;;10.70;99.90;;;;;;4990230;28;20396;-58
2022/11/17 01:42:15;;;;;;;4.53;1.98;;;10.70;99.90;;;;;;4991110;28;20034;-56
2022/11/17 01:44:42;;;;;;;8.25;1.17;;;10.90;99.90;;;;;;4987967;28;20030;-57
2022/11/17 01:47:26;;;;;;;10.50;1.52;;;10.90;99.90;;;;;;4987842;28;20480;-56
2022/11/17 01:50:02;;;;;;;6.68;2.00;;;10.90;99.90;;;;;;4989549;28;20038;-57
2022/11/17 01:52:30;;;;;;;6.55;1.67;;;10.90;99.90;;;;;;4986597;28;20115;-58
2022/11/17 01:54:57;;;;;;;6.90;1.77;;;10.90;99.90;;;;;;4988261;28;20033;-58
2022/11/17 01:57:32;;;;;;;6.40;1.83;;;11.00;99.90;;;;;;4990660;28;20034;-57
2022/11/17 02:00:03;;;;;;;8.60;1.98;;;11.00;99.90;;;;;;4989052;28;20018;-56
2022/11/17 02:02:29;;;;;;;4.35;1.63;;;11.10;99.90;;;;;;4986907;28;20441;-57
2022/11/17 02:05:09;;;;;;;6.10;1.88;;;11.10;99.90;;;;;;4984645;28;20105;-56
2022/11/17 02:07:38;;;;;;;5.25;1.50;;;11.10;99.90;;;;;;4998153;28;20373;-57
2022/11/17 02:10:04;;;;;;;6.82;1.52;;;11.10;99.90;;;;;;5002446;28;20034;-56
2022/11/17 02:12:32;;;;;;;8.45;1.48;;;11.20;99.90;;;;;;4988009;28;20046;-55
2022/11/17 02:14:59;;;;;;;4.97;2.25;;;11.10;99.90;;;;;;4990977;28;20038;-56
2022/11/17 02:17:32;;;;;;;5.93;1.50;;;11.20;99.90;;;;;;4988092;28;20061;-57
2022/11/17 02:20:14;;;;;;;3.97;1.20;;;11.20;99.90;;;;;;4993096;28;20050;-55
2022/11/17 02:22:58;;;;;;;8.82;1.88;;;11.10;99.90;;;;;;4987005;28;20085;-55
2022/11/17 02:25:38;;;;;;;5.78;1.40;;;11.10;99.90;;;;;;4985594;28;20097;-57
2022/11/17 02:28:30;;;;;;;2.33;1.60;;;11.10;99.90;;;;;;4988278;28;20037;-56
2022/11/17 02:31:22;;;;;;;4.07;2.00;;;11.10;99.90;;;;;;4988859;28;21511;-56
2022/11/17 02:34:20;;;;;;;1.75;1.40;;;11.10;99.90;;;;;;4984875;28;20022;-57
2022/11/17 02:37:01;;;;;;;5.47;1.88;;;11.10;99.90;;;;;;4989520;28;20029;-57
2022/11/17 02:39:42;;;;;;;3.88;1.75;;;11.10;99.90;;;;;;4988487;28;20535;-57
2022/11/17 02:42:16;;;;;;;5.75;2.13;;;11.10;99.90;;;;;;4989492;28;20030;-57
2022/11/17 02:44:57;;;;;;;5.20;1.85;;;11.10;99.90;;;;;;4985102;28;20100;-57
2022/11/17 02:47:29;;;;;;;5.55;1.52;;;11.10;99.90;;;;;;4987757;28;20041;-56
2022/11/17 02:50:05;;;;;;;4.88;1.77;;;11.10;99.90;;;;;;4995740;28;20030;-56
2022/11/17 02:52:30;;;;;;;2.35;1.58;;;11.10;99.90;;;;;;4993296;28;20412;-57
2022/11/17 02:55:01;;;;;;;4.32;1.73;;;11.10;99.90;;;;;;4997561;28;20109;-55
2022/11/17 02:57:35;;;;;;;7.78;2.30;;;11.10;99.90;;;;;;4987386;28;20358;-54
2022/11/17 03:00:08;;;;;;;4.45;1.50;;;11.20;99.90;;;;;;4986902;28;20548;-58
2022/11/17 03:03:00;;;;;;;8.93;2.00;;;11.20;99.90;;;;;;4997511;28;20026;-57
2022/11/17 03:05:28;;;;;;;3.90;1.70;;;11.20;99.90;;;;;;4986883;28;20033;-56
2022/11/17 03:08:08;;;;;;;8.88;1.58;;;11.20;99.90;;;;;;4995301;28;20627;-55
2022/11/17 03:11:02;;;;;;;2.92;1.23;;;11.10;99.90;;;;;;4992332;28;20097;-55
2022/11/17 03:13:36;;;;;;;4.55;1.40;;;11.10;99.90;;;;;;4961212;28;20512;-57
2022/11/17 03:16:16;;;;;;;;;;;11.10;99.90;;;;;;4985829;28;20349;-55
2022/11/17 03:19:04;;;;;;;4.63;1.17;;;11.10;99.90;;;;;;4987087;28;19924;-56
2022/11/17 03:21:36;;;;;;;2.88;1.02;;;11.20;99.90;;;;;;4987858;28;20117;-57
2022/11/17 03:24:15;;;;;;;2.38;1.27;;;11.20;99.90;;;;;;4987866;28;20030;-55
2022/11/17 03:26:47;;;;;;;4.20;1.80;;;11.10;99.90;;;;;;4988596;28;20027;-56
2022/11/17 03:29:16;;;;;;;2.70;1.23;;;11.20;99.90;;;;;;4984219;28;20058;-58
2022/11/17 03:31:46;;;;;;;2.88;1.45;;;11.20;99.90;;;;;;4987200;28;20038;-57
2022/11/17 03:34:16;;;;;;;2.55;1.50;;;11.10;99.90;;;;;;4987019;28;20034;-57
2022/11/17 03:36:46;;;;;;;4.22;1.23;;;11.10;99.90;;;;;;4989764;28;20045;-58
2022/11/17 03:39:29;;;;;;;3.70;1.30;;;11.10;99.90;;;;;;4994393;28;20039;-58
2022/11/17 03:42:07;;;;;;;3.50;1.30;;;11.10;99.90;;;;;;4993458;28;20022;-56
2022/11/17 03:44:37;;;;;;;3.13;1.08;;;11.00;99.90;;;;;;4989012;28;20111;-56
2022/11/17 03:47:04;;;;;;;5.57;1.35;;;10.90;99.90;;;;;;4991555;28;20429;-59
2022/11/17 03:49:42;;;;;;;2.92;1.30;;;10.90;99.90;;;;;;4992136;28;20089;-58
2022/11/17 03:52:08;;;;;;;5.43;1.52;;;10.90;99.90;;;;;;4992309;28;20034;-56
2022/11/17 03:54:35;;;;;;;4.38;1.30;;;10.90;99.90;;;;;;4989489;28;20031;-58
2022/11/17 03:57:14;;;;;;;3.10;2.00;;;10.90;99.90;;;;;;4992936;28;20102;-54
2022/11/17 03:59:56;;;;;;;3.17;1.20;;;10.90;99.90;;;;;;4986804;28;20033;-58
2022/11/17 04:02:24;;;;;;;2.72;1.20;;;10.90;99.90;;;;;;4992050;28;20100;-58
2022/11/17 04:05:05;;;;;;;5.05;1.20;;;10.90;99.90;;;;;;4990051;28;20054;-56
2022/11/17 04:07:35;;;;;;;3.65;1.88;;;10.90;99.90;;;;;;4990163;28;20538;-56
2022/11/17 04:10:02;;;;;;;2.28;1.60;;;10.80;99.90;;;;;;4975596;28;20027;-56
2022/11/17 04:18:13;;;;;;;3.78;1.52;;;10.70;99.90;;;;;;4990707;28;20049;-57
2022/11/17 04:20:39;;;;;;;4.30;1.80;;;10.70;99.90;;;;;;4991556;28;20096;-57
2022/11/17 04:23:13;;;;;;;2.45;1.45;;;10.70;99.90;;;;;;4993952;28;20404;-57
2022/11/17 04:28:36;;;;;;;5.72;1.75;;;10.70;99.90;;;;;;4988291;28;20473;-57
2022/11/17 04:31:14;;;;;;;6.85;2.03;;;10.70;99.90;;;;;;4996861;28;20030;-57
2022/11/17 04:34:04;;;;;;;4.10;0.90;;;10.80;99.90;;;;;;4993441;28;20704;-57
2022/11/17 04:36:36;;;;;;;5.40;0.90;;;10.70;99.90;;;;;;4989739;28;20046;-56
2022/11/17 04:39:02;;;;;;;1.65;0.80;;;10.70;99.90;;;;;;4990765;28;20391;-56
2022/11/17 04:44:14;;;;;;;1.98;0.90;;;10.70;99.90;;;;;;4993669;28;20077;-56
2022/11/17 04:46:41;;;;;;;1.33;0.70;;;10.80;99.90;;;;;;4994720;28;20038;-56
2022/11/17 04:49:07;;;;;;;3.75;0.82;;;10.80;99.90;;;;;;4994039;28;20034;-57
2022/11/17 04:51:34;;;;;;;6.18;0.90;;;10.90;99.90;;;;;;4988850;28;20038;-56
2022/11/17 04:54:00;;;;;;;6.28;1.23;;;11.00;99.90;;;;;;4994028;28;20030;-57
2022/11/17 04:56:26;;;;;;;5.15;1.00;;;11.00;99.90;;;;;;4993887;28;21127;-57
2022/11/17 04:58:52;;;;;;;4.38;1.90;;;11.10;99.90;;;;;;4992878;28;20023;-54
2022/11/17 05:01:19;;;;;;;3.78;1.48;;;11.10;99.90;;;;;;4994562;28;20022;-57
2022/11/17 05:03:46;;;;;;;11.57;0.95;;;11.10;99.90;;;;;;4989428;28;20034;-57
2022/11/17 05:06:15;;;;;;;4.68;0.90;;;11.10;99.90;;;;;;4991567;28;20034;-56
2022/11/17 05:08:41;;;;;;;4.68;0.80;;;11.10;99.90;;;;;;4991805;28;20022;-56
2022/11/17 05:13:53;;;;;;;1.85;0.90;;;11.20;99.90;;;;;;4992134;28;20357;-56
2022/11/17 05:19:05;;;;;;;2.03;1.00;;;11.20;99.90;;;;;;4991226;28;20091;-59
2022/11/17 05:21:31;;;;;;;4.88;1.10;;;11.20;99.90;;;;;;4987924;28;20400;-56
2022/11/17 05:23:57;;;;;;;1.38;0.85;;;11.20;99.90;;;;;;4996122;23;20058;-58
2022/11/17 05:26:25;;;;;;;5.45;1.08;;;11.20;99.90;;;;;;4983823;28;20030;-57
2022/11/17 05:28:51;;;;;;;5.38;1.70;;;11.20;99.90;;;;;;4990635;28;20058;-58
2022/11/17 05:31:17;;;;;;;7.78;1.85;;;11.20;99.90;;;;;;4990360;28;20046;-54
2022/11/17 05:33:43;;;;;;;5.05;1.30;;;11.20;99.90;;;;;;4982243;28;20464;-58
2022/11/17 05:36:09;;;;;;;3.97;1.45;;;11.20;99.90;;;;;;4973898;28;20458;-58
2022/11/17 05:38:35;;;;;;;1.90;1.13;;;11.20;99.90;;;;;;4972050;28;20023;-55
2022/11/17 05:41:00;;;;;;;4.15;1.65;;;11.20;99.90;;;;;;4969580;28;20519;-56
2022/11/17 05:43:26;;;;;;;5.80;1.75;;;11.10;99.90;;;;;;4972484;28;20035;-56
2022/11/17 05:45:52;;;;;;;2.08;1.30;;;11.10;99.90;;;;;;4966824;28;20096;-57
2022/11/17 05:48:18;;;;;;;6.00;2.13;;;11.00;99.90;;;;;;4970338;28;20062;-57
2022/11/17 05:50:43;;;;;;;9.18;1.90;;;11.00;99.90;;;;;;4973575;28;20588;-57
2022/11/17 05:53:09;;;;;;;2.38;1.65;;;11.00;99.90;;;;;;4972642;28;20062;-57
2022/11/17 05:55:34;;;;;;;3.88;1.88;;;11.00;99.90;;;;;;4968388;28;20039;-52
2022/11/17 05:58:08;;;;;;;5.13;2.10;;;11.00;99.90;;;;;;4973163;28;20109;-56
2022/11/17 06:00:35;;;;;;;12.38;2.63;;;11.00;99.90;;;;;;4951088;28;20113;-55
2022/11/17 06:03:07;;;;;;;5.47;2.10;;;11.00;99.90;;;;;;4973183;28;20528;-55
2022/11/17 06:05:32;;;;;;;5.60;1.80;;;11.00;99.90;;;;;;4968099;28;20018;-56
2022/11/17 06:07:58;;;;;;;3.50;1.70;;;11.00;99.90;;;;;;4968684;28;20045;-55
2022/11/17 06:10:25;;;;;;;5.60;1.80;;;11.00;99.90;;;;;;4964383;28;20031;-54
2022/11/17 06:12:50;;;;;;;7.97;1.83;;;11.10;99.90;;;;;;4964120;28;20106;-56
2022/11/17 06:15:16;;;;;;;3.55;1.17;;;11.10;99.90;;;;;;4969531;28;20497;-54
2022/11/17 06:17:53;;;;;;;4.55;1.30;;;11.00;99.90;;;;;;4972475;28;20093;-56
2022/11/17 06:20:22;;;;;;;6.30;1.20;;;11.00;99.90;;;;;;4951346;28;20018;-57
2022/11/17 06:22:49;;;;;;;10.77;1.70;;;11.00;99.90;;;;;;4968786;28;20294;-53
2022/11/17 06:25:16;;;;;;;6.18;1.35;;;11.00;99.90;;;;;;4968748;28;20053;-54
2022/11/17 06:27:42;;;;;;;2.67;1.10;;;11.00;99.90;;;;;;4975921;28;20114;-56
2022/11/17 06:30:08;;;;;;;7.75;1.73;;;10.90;99.90;;;;;;4968050;28;20113;-56
2022/11/17 06:32:36;;;;;;;5.43;1.42;;;11.00;99.90;;;;;;4980616;28;20022;-55
2022/11/17 06:35:05;;;;;;;7.70;1.50;;;11.00;99.90;;;;;;4968001;28;20478;-57
2022/11/17 06:37:31;;;;;;;7.15;1.48;;;11.00;99.90;;;;;;4969907;28;20101;-56
2022/11/17 06:39:56;;;;;;;11.00;2.55;;;11.00;99.90;;;;;;4970427;28;20485;-57
2022/11/17 06:43:02;;;;;;;11.80;1.90;;;10.90;99.90;;;;;;4969358;28;20025;-55
2022/11/17 06:45:08;;;;;;;6.43;1.73;;;11.00;99.90;;;;;;4968338;28;20038;-56
2022/11/17 06:47:33;;;;;;;7.43;1.85;;;10.90;99.90;;;;;;4969982;28;20038;-56
2022/11/17 06:49:59;;;;;;;9.80;1.90;;;10.80;99.90;;;;;;4970671;28;20019;-57
2022/11/17 06:52:24;;;;;;;13.05;2.35;;;10.80;99.90;;;;;;4970411;28;20026;-55
2022/11/17 06:54:50;;;;;;;7.60;1.85;;;10.70;99.90;;;;;;4972210;28;20026;-56
2022/11/17 06:57:15;;;;;;;18.27;2.70;;;10.70;99.90;;;;;;4983749;28;20041;-55
2022/11/17 06:59:41;;;;;;;8.57;1.50;;;10.70;99.90;;;;;;4971534;28;20034;-56
2022/11/17 07:02:06;;;;;;;8.60;1.80;;;10.80;99.90;;;;;;4966487;28;20090;-56
2022/11/17 07:04:32;;;;;;;6.55;1.77;;;10.80;99.90;;;;;;4973461;28;20035;-58
2022/11/17 07:06:57;;;;;;;5.80;1.25;;;10.80;99.90;;;;;;4969762;28;20041;-56
2022/11/17 07:09:24;;;;;;;2.97;1.00;;;10.80;99.90;;;;;;4969399;28;20039;-56
2022/11/17 07:11:50;;;;;;;5.43;1.30;;;10.80;99.90;;;;;;4964366;28;20039;-58
2022/11/17 07:14:16;;;;;;;5.97;1.08;;;10.80;99.90;;;;;;4970425;28;20041;-54
2022/11/17 07:16:42;;;;;;;7.57;0.98;;;10.80;99.90;;;;;;4967756;28;20193;-58
2022/11/17 07:19:08;;;;;;;4.68;1.25;;;10.80;99.90;;;;;;4971797;28;20037;-58
2022/11/17 07:21:35;;;;;;;10.70;1.25;;;10.80;99.90;;;;;;4968732;28;20034;-58
2022/11/17 07:24:02;;;;;;;3.15;0.75;;;10.80;99.90;;;;;;4967948;28;20521;-56
2022/11/17 07:26:28;;;;;;;3.10;0.50;;;10.90;99.90;;;;;;4964090;28;20459;-54
2022/11/17 07:28:53;;;;;;;2.25;0.60;;;10.90;99.90;;;;;;4965296;28;20023;-58
2022/11/17 07:31:19;;;;;;;2.92;0.50;;;10.90;99.90;;;;;;4969855;28;20515;-55
2022/11/17 07:33:45;;;;;;;2.72;0.55;;;11.00;99.90;;;;;;4952609;28;20019;-58
2022/11/17 07:36:13;;;;;;;4.03;0.43;;;11.00;99.90;;;;;;4966570;28;20035;-57
2022/11/17 07:38:39;;;;;;;1.92;0.47;;;11.00;99.90;;;;;;4969126;28;20077;-58
2022/11/17 07:41:05;;;;;;;4.93;0.52;;;10.80;99.90;;;;;;4969821;28;20035;-55
2022/11/17 07:43:33;;;;;;;1.52;0.50;;;10.80;99.90;;;;;;4970864;28;20440;-57
2022/11/17 07:46:05;;;;;;;1.55;0.65;;;10.70;99.90;;;;;;4953328;28;20034;-54
2022/11/17 07:48:31;;;;;;;1.20;0.30;;;10.70;99.90;;;;;;4969037;28;20122;-57
2022/11/17 07:51:01;;;;;;;0.88;0.40;;;10.80;99.90;;;;;;4970075;28;20113;-56
2022/11/17 07:53:27;;;;;;;0.70;0.43;;;11.00;99.90;;;;;;4973180;28;20053;-58
2022/11/17 07:55:53;;;;;;;2.75;0.60;;;11.20;99.90;;;;;;4974214;28;20506;-56
2022/11/17 07:58:19;;;;;;;2.85;0.47;;;11.20;99.90;;;;;;4965007;28;20053;-54
2022/11/17 08:00:44;;;;;;;2.08;0.50;;;11.10;99.90;;;;;;4971249;28;20034;-56
2022/11/17 08:03:10;;;;;;;1.20;0.32;;;11.10;99.90;;;;;;4960690;28;20027;-56
2022/11/17 08:05:38;;;;;;;2.53;0.63;;;11.20;99.90;;;;;;4968214;28;20397;-58
2022/11/17 08:08:04;;;;;;;2.03;0.40;;;11.20;99.90;;;;;;4969503;28;20447;-57
2022/11/17 08:10:30;;;;;;;2.58;0.45;;;11.10;99.90;;;;;;4971865;28;20035;-56
2022/11/17 08:12:56;;;;;;;3.97;0.70;;;11.30;99.90;;;;;;4959381;28;20953;-57
2022/11/17 08:15:22;;;;;;;2.83;0.80;;;11.30;99.90;;;;;;4964916;28;20023;-57
2022/11/17 08:17:54;;;;;;;3.90;0.80;;;11.20;99.90;;;;;;4964706;28;20031;-58
2022/11/17 08:20:20;;;;;;;5.55;1.10;;;11.20;99.90;;;;;;4968084;28;20637;-58
2022/11/17 08:22:48;;;;;;;5.40;0.50;;;11.10;99.90;;;;;;4969179;28;20420;-57
2022/11/17 08:25:13;;;;;;;8.95;0.63;;;11.10;99.90;;;;;;4970305;28;20122;-56
2022/11/17 08:27:40;;;;;;;0.30;0.30;;;11.00;99.90;;;;;;4972939;28;20058;-57
2022/11/17 08:30:06;;;;;;;2.05;0.38;;;11.00;99.90;;;;;;4971676;28;20031;-56
2022/11/17 08:32:32;;;;;;;2.40;0.30;;;11.00;99.90;;;;;;4980566;28;20022;-57
2022/11/17 08:34:57;;;;;;;6.53;0.60;;;11.10;99.90;;;;;;4955900;28;20037;-57
2022/11/17 08:37:23;;;;;;;0.73;0.30;;;11.00;99.90;;;;;;4973335;28;20085;-56
2022/11/17 08:39:48;;;;;;;1.65;0.43;;;11.10;99.90;;;;;;4973193;28;20035;-58
2022/11/17 08:42:15;;;;;;;1.25;0.43;;;11.20;99.90;;;;;;4975044;28;20026;-59
2022/11/17 08:44:41;;;;;;;1.55;0.40;;;11.30;99.90;;;;;;4973526;28;20381;-58
2022/11/17 08:47:06;;;;;;;2.85;0.65;;;11.30;99.90;;;;;;4973275;28;20038;-58
2022/11/17 08:49:32;;;;;;;4.00;0.50;;;11.40;99.90;;;;;;4971752;28;20066;-58
2022/11/17 08:51:58;;;;;;;7.32;0.50;;;11.40;99.90;;;;;;4978386;28;20041;-58
2022/11/17 08:54:23;;;;;;;2.35;0.60;;;11.40;99.90;;;;;;4970178;28;20027;-58
2022/11/17 08:56:49;;;;;;;2.72;0.63;;;11.50;99.90;;;;;;4975521;28;20030;-59
2022/11/17 08:59:15;;;;;;;6.35;0.70;;;11.60;99.90;;;;;;4975761;28;20158;-56
2022/11/17 09:01:40;;;;;;;3.70;0.70;;;11.60;99.90;;;;;;4959036;28;20027;-57
2022/11/17 09:04:06;;;;;;;3.22;1.17;;;11.70;99.90;;;;;;4970578;28;20026;-58
2022/11/17 09:06:31;;;;;;;2.58;0.63;;;11.70;99.90;;;;;;4972625;28;20027;-58
2022/11/17 09:08:57;;;;;;;6.07;0.73;;;11.80;99.90;;;;;;4969040;28;20019;-57
2022/11/17 09:11:22;;;;;;;4.22;0.55;;;11.80;99.90;;;;;;4971305;28;20026;-55
2022/11/17 09:13:48;;;;;;;0.82;0.60;;;11.90;99.90;;;;;;4972800;28;20034;-58
2022/11/17 09:16:15;;;;;;;3.42;0.50;;;11.90;99.90;;;;;;4972119;28;20030;-57
2022/11/17 09:18:40;;;;;;;4.07;0.50;;;12.00;99.90;;;;;;4972502;28;20023;-54
2022/11/17 09:21:09;;;;;;;3.42;0.40;;;12.10;99.90;;;;;;4972326;28;20482;-55
2022/11/17 09:23:35;;;;;;;3.65;0.43;;;12.20;99.90;;;;;;4971074;28;20043;-53
2022/11/17 09:26:06;;;;;;;1.90;0.65;;;12.30;99.90;;;;;;4968648;28;20023;-55
2022/11/17 09:28:32;;;;;;;2.22;0.70;;;12.50;99.90;;;;;;4971659;28;20015;-59
2022/11/17 09:30:58;;;;;;;6.18;0.63;;;12.60;99.90;;;;;;4970877;28;20031;-56
2022/11/17 09:33:23;;;;;;;4.55;0.77;;;12.60;99.90;;;;;;4969806;28;20126;-53
2022/11/17 09:35:49;;;;;;;2.42;0.40;;;12.60;99.90;;;;;;4970584;28;20463;-59
2022/11/17 09:38:15;;;;;;;1.52;0.50;;;12.60;99.90;;;;;;4970402;28;20508;-54
2022/11/17 09:40:42;;;;;;;3.15;0.50;;;12.60;99.90;;;;;;4965952;28;20122;-54
2022/11/17 09:43:25;;;;;;;3.15;0.70;;;12.60;99.90;;;;;;4972689;28;20023;-54
2022/11/17 09:45:53;;;;;;;4.65;0.77;;;12.60;99.90;;;;;;4972655;28;20023;-53
2022/11/17 09:48:35;;;;;;;3.22;0.75;;;12.70;99.90;;;;;;4973203;28;20035;-57
2022/11/17 09:51:03;;;;;;;6.13;1.08;;;12.70;99.90;;;;;;4971729;28;20036;-57
2022/11/17 09:53:34;;;;;;;2.03;0.60;;;12.80;99.90;;;;;;4971205;28;20122;-55
2022/11/17 09:56:02;;;;;;;1.30;0.40;;;12.80;99.90;;;;;;4968017;28;20023;-57
2022/11/17 09:58:45;;;;;;;6.35;0.63;;;12.80;99.90;;;;;;4972057;28;20101;-57
2022/11/17 10:01:19;;;;;;;2.85;0.47;;;12.80;99.90;;;;;;4948532;28;20034;-58
2022/11/17 10:03:47;;;;;;;0.65;0.47;;;12.80;99.90;;;;;;4972230;28;20046;-56
2022/11/17 10:06:17;;;;;;;7.13;0.45;;;12.70;99.90;;;;;;4972072;28;20106;-58
2022/11/17 10:09:01;;;;;;;1.05;0.40;;;12.80;99.90;;;;;;4972190;28;20019;-58
2022/11/17 10:11:31;;;;;;;;;;;12.80;99.90;;;;;;4973999;28;20031;-57
2022/11/17 10:14:17;;;;;;;3.05;0.30;;;12.70;99.90;;;;;;4971910;28;19906;-54
2022/11/17 10:16:51;;;;;;;4.32;0.57;;;12.80;99.90;;;;;;4967422;28;20030;-58
2022/11/17 10:19:23;;;;;;;1.67;0.63;;;12.80;99.90;;;;;;4971791;28;20030;-57
2022/11/17 10:22:23;;;;;;;4.95;1.00;;;12.80;99.90;;;;;;4967883;28;20090;-58
2022/11/17 10:24:53;;;;;;;3.67;0.57;;;12.80;99.90;;;;;;4964090;28;20093;-56
2022/11/17 10:27:21;;;;;;;2.05;0.50;;;12.90;99.90;;;;;;4966334;28;20543;-59
2022/11/17 10:30:13;;;;;;;2.55;0.57;;;12.90;99.90;;;;;;4965814;28;20516;-56
2022/11/17 10:32:50;;;;;;;0.68;0.40;;;12.80;99.90;;;;;;4968542;28;20041;-58
2022/11/17 10:35:18;;;;;;;4.13;0.65;;;12.90;99.90;;;;;;4971983;28;20034;-56
2022/11/17 10:37:51;;;;;;;2.78;0.47;;;13.00;99.90;;;;;;4970166;28;20093;-56
2022/11/17 10:40:23;;;;;;;5.82;0.75;;;13.00;99.90;;;;;;4970475;28;20146;-56
2022/11/17 10:43:12;;;;;;;2.17;0.63;;;13.00;99.90;;;;;;4971104;28;20038;-59
2022/11/17 10:45:59;;;;;;;2.63;0.52;;;13.10;99.90;;;;;;4970959;28;20097;-57
2022/11/17 10:48:36;;;;;;;3.08;0.43;;;13.20;99.90;;;;;;4966200;28;20037;-58
2022/11/17 10:51:08;;;;;;;3.97;0.40;;;13.20;99.90;;;;;;4974302;28;20023;-57
2022/11/17 10:53:37;;;;;;;0.38;0.38;;;13.20;99.90;;;;;;4970360;28;20077;-57
2022/11/17 10:56:20;;;;;;;2.15;0.60;;;13.20;99.90;;;;;;4971487;28;20030;-59
2022/11/17 10:59:17;;;;;;;3.45;0.50;;;13.30;99.90;;;;;;4970585;28;20027;-56
2022/11/17 11:01:48;;;;;;;2.63;0.30;;;13.30;99.90;;;;;;4966044;28;20027;-58
2022/11/17 11:04:27;;;;;;;1.20;0.40;;;13.20;99.90;;;;;;4968039;28;20378;-56
2022/11/17 11:07:10;;;;;;;3.92;0.50;;;13.20;99.90;;;;;;4965935;28;20038;-56
2022/11/17 11:09:45;;;;;;;1.38;0.40;;;13.20;99.90;;;;;;4973659;28;20076;-57
2022/11/17 11:12:17;;;;;;;1.35;0.95;;;13.10;99.90;;;;;;4971593;28;20054;-57
2022/11/17 11:14:49;;;;;;;1.38;0.52;;;13.00;99.90;;;;;;4971006;28;20116;-55
2022/11/17 11:17:16;;;;;;;0.55;0.40;;;13.00;99.90;;;;;;4971564;28;20118;-58
2022/11/17 11:19:50;;;;;;;3.80;0.60;;;13.00;99.90;;;;;;4964428;28;20022;-58
2022/11/17 11:22:44;;;;;;;1.90;0.35;;;13.10;99.90;;;;;;4966763;28;20370;-59
2022/11/17 11:25:27;;;;;;;1.88;0.57;;;13.10;99.90;;;;;;4969575;28;20045;-54
2022/11/17 11:28:17;;;;;;;2.22;0.68;;;13.10;99.90;;;;;;4966686;28;20412;-59
2022/11/17 11:31:13;;;;;;;1.88;0.35;;;13.10;99.90;;;;;;4971303;28;20397;-54
2022/11/17 11:33:46;;;;;;;0.57;0.35;;;13.20;99.90;;;;;;4969933;28;20042;-58
2022/11/17 11:36:49;;;;;;;2.05;0.47;;;13.20;99.90;;;;;;4968200;28;20740;-58
2022/11/17 11:39:34;;;;;;;1.20;0.30;;;13.20;99.90;;;;;;4969204;28;20489;-56
2022/11/17 11:42:22;;;;;;;2.13;0.43;;;13.30;99.90;;;;;;4999150;23;20057;-55
2022/11/17 11:44:54;;;;;;;3.83;0.75;;;13.40;99.90;;;;;;4985350;28;20247;-55
2022/11/17 11:47:32;;;;;;;2.42;0.45;;;13.50;99.90;;;;;;4988230;28;20118;-48
2022/11/17 11:50:18;;;;;;;2.08;0.47;;;13.40;99.90;;;;;;4987587;28;20053;-57
2022/11/17 11:52:50;;;;;;;2.38;0.22;;;13.40;99.90;;;;;;4988200;28;20030;-56
2022/11/17 11:55:34;;;;;;;2.95;0.50;;;13.40;99.90;;;;;;4989975;28;20022;-55
2022/11/17 11:58:15;;;;;;;4.35;0.40;;;13.20;99.90;;;;;;4990146;28;20048;-54
2022/11/17 12:00:43;;;;;;;3.00;0.35;;;13.20;99.90;;;;;;4987367;28;20114;-50
2022/11/17 12:03:33;;;;;;;2.33;0.60;;;13.30;99.90;;;;;;4988048;28;20388;-54
2022/11/17 12:09:08;;;;;;;4.50;0.50;;;13.30;99.90;;;;;;4992534;28;20519;-51
2022/11/17 12:14:20;;;;;;;1.63;0.50;;;13.40;99.90;;;;;;4992976;28;20576;-51
2022/11/17 12:16:47;;;;;;;0.82;0.35;;;13.50;99.90;;;;;;4992926;28;20117;-50
2022/11/17 12:19:46;;;;;;;7.03;0.60;;;13.60;99.90;;;;;;4988674;28;20436;-50
2022/11/17 12:22:28;;;;;;;0.45;0.30;;;13.60;99.90;;;;;;4986739;28;20029;-53
2022/11/17 12:25:20;;;;;;;9.27;0.43;;;13.70;99.90;;;;;;4992472;28;20445;-60
2022/11/17 12:27:48;;;;;;;2.40;0.50;;;13.60;99.90;;;;;;4993764;28;20508;-60
2022/11/17 12:30:32;;;;;;;1.52;0.60;;;13.60;99.90;;;;;;4982823;28;20029;-57
2022/11/17 12:33:07;;;;;;;2.53;0.60;;;13.60;99.90;;;;;;4982699;28;20026;-51
2022/11/17 12:35:38;;;;;;;2.58;0.52;;;13.70;99.90;;;;;;4993018;28;20785;-55
2022/11/17 12:38:15;;;;;;;2.15;0.50;;;13.80;99.90;;;;;;4990945;28;20088;-54
2022/11/17 12:40:44;;;;;;;3.60;0.45;;;14.00;99.90;;;;;;4983126;28;20491;-59
2022/11/17 12:43:16;;;;;;;2.47;0.45;;;14.30;99.90;;;;;;4967542;28;20033;-56
2022/11/17 12:46:13;;;;;;;1.10;0.75;;;14.70;99.90;;;;;;4989194;28;20034;-60
2022/11/17 12:49:09;;;;;;;1.55;0.40;;;15.00;99.90;;;;;;4985101;28;20061;-51
2022/11/17 12:51:52;;;;;;;3.65;0.50;;;15.20;99.90;;;;;;4977746;28;20547;-58
2022/11/17 12:54:35;;;;;;;1.75;0.55;;;15.30;99.90;;;;;;4964147;28;20053;-56
2022/11/17 12:57:12;;;;;;;1.85;0.30;;;15.10;99.90;;;;;;4983248;28;20519;-57
2022/11/17 13:00:06;;;;;;;2.50;0.50;;;14.90;99.90;;;;;;4992095;28;20857;-57
2022/11/17 13:02:56;;;;;;;2.28;0.40;;;14.60;99.90;;;;;;4990010;28;20038;-49
2022/11/17 13:05:24;;;;;;;1.73;0.52;;;14.40;99.90;;;;;;4969395;28;20041;-56
2022/11/17 13:08:06;;;;;;;0.43;0.22;;;14.40;99.90;;;;;;4990351;28;20034;-55
2022/11/17 13:10:32;;;;;;;1.40;0.47;;;14.30;99.90;;;;;;4984262;28;20018;-57
2022/11/17 13:13:17;;;;;;;4.45;0.75;;;14.20;99.90;;;;;;4990419;28;20374;-55
2022/11/17 13:15:47;;;;;;;2.30;0.40;;;14.20;99.90;;;;;;4988690;28;20026;-56
2022/11/17 13:18:51;;;;;;;3.97;0.52;;;14.00;99.90;;;;;;4988751;28;20050;-57
2022/11/17 13:21:25;;;;;;;1.73;0.20;;;14.00;99.90;;;;;;4959145;28;20527;-55
2022/11/17 13:23:51;;;;;;;2.65;0.55;;;14.10;99.90;;;;;;4987237;28;20045;-57
2022/11/17 13:26:25;;;;;;;4.43;0.40;;;14.10;99.90;;;;;;4988058;28;20544;-57
2022/11/17 13:29:04;;;;;;;1.92;0.57;;;14.10;99.90;;;;;;4984002;28;20022;-61
2022/11/17 13:31:30;;;;;;;5.05;0.47;;;14.10;99.90;;;;;;4983561;28;20451;-50
2022/11/17 13:34:11;;;;;;;6.65;0.82;;;14.10;99.90;;;;;;4971839;28;20130;-57
2022/11/17 13:36:54;;;;;;;4.72;0.70;;;14.10;99.90;;;;;;4988979;28;20034;-55
2022/11/17 13:39:20;;;;;;;2.78;0.73;;;14.20;99.90;;;;;;4988188;28;20035;-59
2022/11/17 13:41:46;;;;;;;7.40;0.68;;;14.20;99.90;;;;;;4982459;28;20038;-55